sensor_id;sensor_type;location;lat;lon;timestamp;temperature;humidity
19742;DHT22;10028;48.822;11.854;2022-08-03T00:11:19;19.20;99.90
19742;DHT22;10028;48.822;11.854;2022-08-03T00:48:50;18.80;99.90
19742;DHT22;10028;48.822;11.854;2022-08-03T00:51:19;18.50;99.90
19742;DHT22;10028;48.822;11.854;2022-08-03T00:56:15;18.40;99.90
19742;DHT22;10028;48.822;11.854;2022-08-03T00:58:46;18.10;99.90
19742;DHT22;10028;48.822;11.854;2022-08-03T01:01:13;18.30;99.90
19742;DHT22;10028;48.822;11.854;2022-08-03T01:06:22;18.20;99.90
19742;DHT22;10028;48.822;11.854;2022-08-03T01:09:08;18.20;99.90
19742;DHT22;10028;48.822;11.854;2022-08-03T01:12:00;18.10;99.90
19742;DHT22;10028;48.822;11.854;2022-08-03T01:17:12;17.80;99.90
19742;DHT22;10028;48.822;11.854;2022-08-03T01:20:03;17.90;99.90
19742;DHT22;10028;48.822;11.854;2022-08-03T01:30:31;18.00;99.90
19742;DHT22;10028;48.822;11.854;2022-08-03T01:36:04;18.10;99.90
19742;DHT22;10028;48.822;11.854;2022-08-03T01:38:34;17.90;99.90
19742;DHT22;10028;48.822;11.854;2022-08-03T01:41:05;17.90;99.90
19742;DHT22;10028;48.822;11.854;2022-08-03T01:43:34;17.80;99.90
19742;DHT22;10028;48.822;11.854;2022-08-03T01:51:19;17.80;99.90
19742;DHT22;10028;48.822;11.854;2022-08-03T01:53:48;17.70;99.90
19742;DHT22;10028;48.822;11.854;2022-08-03T01:56:18;17.70;99.90
19742;DHT22;10028;48.822;11.854;2022-08-03T01:58:47;17.70;99.90
19742;DHT22;10028;48.822;11.854;2022-08-03T02:01:16;17.60;99.90
19742;DHT22;10028;48.822;11.854;2022-08-03T02:06:28;17.60;99.90
19742;DHT22;10028;48.822;11.854;2022-08-03T02:09:19;17.60;99.90
19742;DHT22;10028;48.822;11.854;2022-08-03T02:11:46;17.50;99.90
19742;DHT22;10028;48.822;11.854;2022-08-03T02:14:15;17.50;99.90
19742;DHT22;10028;48.822;11.854;2022-08-03T02:16:44;17.50;99.90
19742;DHT22;10028;48.822;11.854;2022-08-03T02:21:40;17.40;99.90
19742;DHT22;10028;48.822;11.854;2022-08-03T02:26:55;17.40;99.90
19742;DHT22;10028;48.822;11.854;2022-08-03T02:29:25;17.40;99.90
19742;DHT22;10028;48.822;11.854;2022-08-03T02:32:09;17.30;99.90
19742;DHT22;10028;48.822;11.854;2022-08-03T02:34:39;17.30;99.90
19742;DHT22;10028;48.822;11.854;2022-08-03T02:37:09;17.30;99.90
19742;DHT22;10028;48.822;11.854;2022-08-03T02:39:38;17.30;99.90
19742;DHT22;10028;48.822;11.854;2022-08-03T02:42:07;17.20;99.90
19742;DHT22;10028;48.822;11.854;2022-08-03T02:44:38;17.30;99.90
19742;DHT22;10028;48.822;11.854;2022-08-03T02:47:08;17.20;99.90
19742;DHT22;10028;48.822;11.854;2022-08-03T02:49:37;17.20;99.90
19742;DHT22;10028;48.822;11.854;2022-08-03T02:52:22;17.20;99.90
19742;DHT22;10028;48.822;11.854;2022-08-03T02:54:52;17.20;99.90
19742;DHT22;10028;48.822;11.854;2022-08-03T02:59:48;17.10;99.90
19742;DHT22;10028;48.822;11.854;2022-08-03T03:02:17;17.10;99.90
19742;DHT22;10028;48.822;11.854;2022-08-03T03:04:46;17.10;99.90
19742;DHT22;10028;48.822;11.854;2022-08-03T03:07:35;17.00;99.90
19742;DHT22;10028;48.822;11.854;2022-08-03T03:10:19;16.70;99.90
19742;DHT22;10028;48.822;11.854;2022-08-03T03:12:52;17.00;99.90
19742;DHT22;10028;48.822;11.854;2022-08-03T03:17:48;17.00;99.90
19742;DHT22;10028;48.822;11.854;2022-08-03T03:20:16;17.00;99.90
19742;DHT22;10028;48.822;11.854;2022-08-03T03:22:57;17.00;99.90
19742;DHT22;10028;48.822;11.854;2022-08-03T03:40:13;16.70;99.90
19742;DHT22;10028;48.822;11.854;2022-08-03T03:45:08;16.80;99.90
19742;DHT22;10028;48.822;11.854;2022-08-03T03:47:36;16.70;99.90
19742;DHT22;10028;48.822;11.854;2022-08-03T03:50:04;16.90;99.90
19742;DHT22;10028;48.822;11.854;2022-08-03T04:07:55;16.70;99.90
19742;DHT22;10028;48.822;11.854;2022-08-03T04:10:46;16.70;99.90
19742;DHT22;10028;48.822;11.854;2022-08-03T04:13:31;16.70;99.90
19742;DHT22;10028;48.822;11.854;2022-08-03T04:16:00;16.60;99.90
19742;DHT22;10028;48.822;11.854;2022-08-03T04:18:29;16.60;99.90
19742;DHT22;10028;48.822;11.854;2022-08-03T04:20:59;16.60;99.90
19742;DHT22;10028;48.822;11.854;2022-08-03T04:23:29;16.50;99.90
19742;DHT22;10028;48.822;11.854;2022-08-03T04:25:58;16.50;99.90
19742;DHT22;10028;48.822;11.854;2022-08-03T04:28:27;16.50;99.90
19742;DHT22;10028;48.822;11.854;2022-08-03T04:30:59;16.50;99.90
19742;DHT22;10028;48.822;11.854;2022-08-03T04:33:28;16.40;99.90
19742;DHT22;10028;48.822;11.854;2022-08-03T04:35:58;16.40;99.90
19742;DHT22;10028;48.822;11.854;2022-08-03T04:38:34;16.40;99.90
19742;DHT22;10028;48.822;11.854;2022-08-03T04:43:31;16.40;99.90
19742;DHT22;10028;48.822;11.854;2022-08-03T04:46:00;16.50;99.90
19742;DHT22;10028;48.822;11.854;2022-08-03T05:53:39;18.60;99.90
19742;DHT22;10028;48.822;11.854;2022-08-03T05:58:45;18.70;99.90
19742;DHT22;10028;48.822;11.854;2022-08-03T06:20:52;19.50;99.90
19742;DHT22;10028;48.822;11.854;2022-08-03T07:50:44;24.50;99.90
19742;DHT22;10028;48.822;11.854;2022-08-03T07:58:08;25.20;99.90
19742;DHT22;10028;48.822;11.854;2022-08-03T08:17:49;26.10;99.90
19742;DHT22;10028;48.822;11.854;2022-08-03T08:20:20;26.20;99.90
19742;DHT22;10028;48.822;11.854;2022-08-03T08:22:58;26.30;99.90
19742;DHT22;10028;48.822;11.854;2022-08-03T08:25:28;26.50;99.90
19742;DHT22;10028;48.822;11.854;2022-08-03T08:45:40;27.20;99.90
19742;DHT22;10028;48.822;11.854;2022-08-03T08:48:08;27.40;99.90
19742;DHT22;10028;48.822;11.854;2022-08-03T08:50:36;27.40;99.90
19742;DHT22;10028;48.822;11.854;2022-08-03T08:53:06;27.50;99.90
19742;DHT22;10028;48.822;11.854;2022-08-03T08:55:45;27.50;99.90
19742;DHT22;10028;48.822;11.854;2022-08-03T08:58:29;27.70;99.90
19742;DHT22;10028;48.822;11.854;2022-08-03T09:18:29;28.30;99.90
19742;DHT22;10028;48.822;11.854;2022-08-03T09:21:19;28.50;99.90
19742;DHT22;10028;48.822;11.854;2022-08-03T09:24:03;28.50;99.90
19742;DHT22;10028;48.822;11.854;2022-08-03T09:26:35;28.50;99.90
19742;DHT22;10028;48.822;11.854;2022-08-03T09:29:05;28.60;99.90
19742;DHT22;10028;48.822;11.854;2022-08-03T09:31:42;28.70;99.90
19742;DHT22;10028;48.822;11.854;2022-08-03T09:34:15;28.80;99.90
19742;DHT22;10028;48.822;11.854;2022-08-03T09:36:44;28.80;99.90
19742;DHT22;10028;48.822;11.854;2022-08-03T09:39:23;29.10;99.90
19742;DHT22;10028;48.822;11.854;2022-08-03T09:42:12;28.90;99.90
19742;DHT22;10028;48.822;11.854;2022-08-03T09:44:46;28.70;99.90
19742;DHT22;10028;48.822;11.854;2022-08-03T09:47:15;29.20;99.90
19742;DHT22;10028;48.822;11.854;2022-08-03T09:49:56;29.20;99.90
19742;DHT22;10028;48.822;11.854;2022-08-03T09:52:31;29.30;99.90
19742;DHT22;10028;48.822;11.854;2022-08-03T09:55:10;29.30;99.90
19742;DHT22;10028;48.822;11.854;2022-08-03T09:58:06;29.50;99.90
19742;DHT22;10028;48.822;11.854;2022-08-03T10:00:59;30.10;99.90
19742;DHT22;10028;48.822;11.854;2022-08-03T10:03:34;29.70;99.90
19742;DHT22;10028;48.822;11.854;2022-08-03T10:09:24;29.60;99.90
19742;DHT22;10028;48.822;11.854;2022-08-03T10:16:47;30.00;99.90
19742;DHT22;10028;48.822;11.854;2022-08-03T10:21:48;30.10;99.90
19742;DHT22;10028;48.822;11.854;2022-08-03T10:24:23;30.10;99.90
19742;DHT22;10028;48.822;11.854;2022-08-03T10:29:20;30.20;99.90
19742;DHT22;10028;48.822;11.854;2022-08-03T10:31:53;30.30;99.90
19742;DHT22;10028;48.822;11.854;2022-08-03T10:34:26;30.30;99.90
19742;DHT22;10028;48.822;11.854;2022-08-03T10:36:56;30.40;99.90
19742;DHT22;10028;48.822;11.854;2022-08-03T10:39:27;30.40;99.90
19742;DHT22;10028;48.822;11.854;2022-08-03T10:41:55;30.50;99.90
19742;DHT22;10028;48.822;11.854;2022-08-03T10:44:32;30.40;99.90
19742;DHT22;10028;48.822;11.854;2022-08-03T10:47:03;30.40;99.90
19742;DHT22;10028;48.822;11.854;2022-08-03T10:49:31;30.50;99.90
19742;DHT22;10028;48.822;11.854;2022-08-03T10:52:02;30.90;99.90
19742;DHT22;10028;48.822;11.854;2022-08-03T10:54:45;30.20;99.90
19742;DHT22;10028;48.822;11.854;2022-08-03T10:57:43;30.60;99.90
19742;DHT22;10028;48.822;11.854;2022-08-03T11:00:16;30.70;99.90
19742;DHT22;10028;48.822;11.854;2022-08-03T11:03:08;30.80;99.90
19742;DHT22;10028;48.822;11.854;2022-08-03T11:05:47;30.90;99.90
19742;DHT22;10028;48.822;11.854;2022-08-03T11:08:22;30.90;99.90
19742;DHT22;10028;48.822;11.854;2022-08-03T11:10:51;30.90;97.30
19742;DHT22;10028;48.822;11.854;2022-08-03T11:13:21;31.00;98.30
19742;DHT22;10028;48.822;11.854;2022-08-03T11:15:51;31.00;98.20
19742;DHT22;10028;48.822;11.854;2022-08-03T11:20:56;31.10;97.70
19742;DHT22;10028;48.822;11.854;2022-08-03T11:29:26;31.00;97.60
19742;DHT22;10028;48.822;11.854;2022-08-03T11:39:49;31.30;96.70
19742;DHT22;10028;48.822;11.854;2022-08-03T11:49:50;31.70;99.90
19742;DHT22;10028;48.822;11.854;2022-08-03T11:52:17;31.30;99.90
19742;DHT22;10028;48.822;11.854;2022-08-03T11:54:53;31.60;93.90
19742;DHT22;10028;48.822;11.854;2022-08-03T11:57:34;31.60;99.90
19742;DHT22;10028;48.822;11.854;2022-08-03T12:00:31;32.00;99.90
19742;DHT22;10028;48.822;11.854;2022-08-03T12:05:33;31.80;99.90
19742;DHT22;10028;48.822;11.854;2022-08-03T12:13:00;31.70;91.00
19742;DHT22;10028;48.822;11.854;2022-08-03T12:15:31;31.70;89.60
19742;DHT22;10028;48.822;11.854;2022-08-03T12:18:09;31.60;99.90
19742;DHT22;10028;48.822;11.854;2022-08-03T12:23:06;31.80;88.70
19742;DHT22;10028;48.822;11.854;2022-08-03T12:28:13;32.10;99.90
19742;DHT22;10028;48.822;11.854;2022-08-03T12:31:04;31.90;87.70
19742;DHT22;10028;48.822;11.854;2022-08-03T12:34:01;31.90;89.00
19742;DHT22;10028;48.822;11.854;2022-08-03T12:36:30;32.00;88.10
19742;DHT22;10028;48.822;11.854;2022-08-03T12:39:04;32.10;86.50
19742;DHT22;10028;48.822;11.854;2022-08-03T12:41:33;32.20;88.40
19742;DHT22;10028;48.822;11.854;2022-08-03T12:44:02;32.20;84.00
19742;DHT22;10028;48.822;11.854;2022-08-03T12:49:08;32.30;86.40
19742;DHT22;10028;48.822;11.854;2022-08-03T12:54:19;32.20;99.90
19742;DHT22;10028;48.822;11.854;2022-08-03T12:57:11;32.40;99.90
19742;DHT22;10028;48.822;11.854;2022-08-03T12:59:43;32.40;84.00
19742;DHT22;10028;48.822;11.854;2022-08-03T13:02:25;32.50;85.90
19742;DHT22;10028;48.822;11.854;2022-08-03T13:04:53;32.40;86.20
19742;DHT22;10028;48.822;11.854;2022-08-03T13:12:27;32.60;83.10
19742;DHT22;10028;48.822;11.854;2022-08-03T13:14:56;32.60;83.00
19742;DHT22;10028;48.822;11.854;2022-08-03T13:22:25;32.90;80.50
19742;DHT22;10028;48.822;11.854;2022-08-03T13:24:55;32.90;79.60
19742;DHT22;10028;48.822;11.854;2022-08-03T13:27:23;32.90;79.10
19742;DHT22;10028;48.822;11.854;2022-08-03T13:35:07;33.30;99.90
19742;DHT22;10028;48.822;11.854;2022-08-03T13:40:04;33.00;79.90
19742;DHT22;10028;48.822;11.854;2022-08-03T13:42:34;33.10;78.90
19742;DHT22;10028;48.822;11.854;2022-08-03T13:45:01;33.00;77.00
19742;DHT22;10028;48.822;11.854;2022-08-03T13:52:36;33.20;76.90
19742;DHT22;10028;48.822;11.854;2022-08-03T13:55:05;33.40;99.40
19742;DHT22;10028;48.822;11.854;2022-08-03T14:02:55;33.30;77.20
19742;DHT22;10028;48.822;11.854;2022-08-03T14:20:25;33.30;75.50
19742;DHT22;10028;48.822;11.854;2022-08-03T14:28:17;33.20;72.80
19742;DHT22;10028;48.822;11.854;2022-08-03T14:47:55;33.10;96.30
19742;DHT22;10028;48.822;11.854;2022-08-03T14:53:16;33.00;97.30
19742;DHT22;10028;48.822;11.854;2022-08-03T14:58:20;33.00;75.20
19742;DHT22;10028;48.822;11.854;2022-08-03T15:00:49;33.10;73.10
19742;DHT22;10028;48.822;11.854;2022-08-03T15:03:17;33.40;97.80
19742;DHT22;10028;48.822;11.854;2022-08-03T15:05:53;33.30;73.50
19742;DHT22;10028;48.822;11.854;2022-08-03T15:08:21;33.30;74.50
19742;DHT22;10028;48.822;11.854;2022-08-03T15:13:17;33.30;71.20
19742;DHT22;10028;48.822;11.854;2022-08-03T15:15:44;33.30;71.70
19742;DHT22;10028;48.822;11.854;2022-08-03T15:53:02;32.70;97.50
19742;DHT22;10028;48.822;11.854;2022-08-03T16:18:05;32.40;74.30
19742;DHT22;10028;48.822;11.854;2022-08-03T16:20:32;32.20;86.10
19742;DHT22;10028;48.822;11.854;2022-08-03T16:23:14;32.40;72.20
19742;DHT22;10028;48.822;11.854;2022-08-03T16:28:15;32.50;73.30
19742;DHT22;10028;48.822;11.854;2022-08-03T16:30:44;32.50;73.40
19742;DHT22;10028;48.822;11.854;2022-08-03T16:33:12;32.50;72.90
19742;DHT22;10028;48.822;11.854;2022-08-03T16:43:13;32.20;75.90
19742;DHT22;10028;48.822;11.854;2022-08-03T16:53:07;31.90;73.50
19742;DHT22;10028;48.822;11.854;2022-08-03T16:55:36;31.90;72.90
19742;DHT22;10028;48.822;11.854;2022-08-03T17:01:11;32.20;97.90
19742;DHT22;10028;48.822;11.854;2022-08-03T17:03:54;32.00;74.30
19742;DHT22;10028;48.822;11.854;2022-08-03T17:06:34;31.90;74.10
19742;DHT22;10028;48.822;11.854;2022-08-03T17:09:15;32.00;74.50
19742;DHT22;10028;48.822;11.854;2022-08-03T17:11:47;31.90;73.50
19742;DHT22;10028;48.822;11.854;2022-08-03T17:14:19;31.90;74.00
19742;DHT22;10028;48.822;11.854;2022-08-03T17:16:49;31.80;97.70
19742;DHT22;10028;48.822;11.854;2022-08-03T17:19:21;31.80;73.80
19742;DHT22;10028;48.822;11.854;2022-08-03T17:22:02;31.80;73.80
19742;DHT22;10028;48.822;11.854;2022-08-03T17:24:32;31.70;74.20
19742;DHT22;10028;48.822;11.854;2022-08-03T17:27:03;31.70;74.60
19742;DHT22;10028;48.822;11.854;2022-08-03T17:29:37;31.60;74.50
19742;DHT22;10028;48.822;11.854;2022-08-03T17:32:16;31.50;74.70
19742;DHT22;10028;48.822;11.854;2022-08-03T17:40:03;31.40;98.00
19742;DHT22;10028;48.822;11.854;2022-08-03T17:45:00;31.30;75.80
19742;DHT22;10028;48.822;11.854;2022-08-03T17:52:56;31.00;77.40
19742;DHT22;10028;48.822;11.854;2022-08-03T17:55:27;31.00;76.10
19742;DHT22;10028;48.822;11.854;2022-08-03T17:58:37;30.90;76.70
19742;DHT22;10028;48.822;11.854;2022-08-03T18:01:13;30.70;77.60
19742;DHT22;10028;48.822;11.854;2022-08-03T18:04:20;30.30;99.50
19742;DHT22;10028;48.822;11.854;2022-08-03T18:06:57;30.90;91.10
19742;DHT22;10028;48.822;11.854;2022-08-03T18:09:29;30.50;79.50
19742;DHT22;10028;48.822;11.854;2022-08-03T18:12:25;30.50;99.90
19742;DHT22;10028;48.822;11.854;2022-08-03T18:15:00;29.80;99.90
19742;DHT22;10028;48.822;11.854;2022-08-03T18:17:51;30.00;80.70
19742;DHT22;10028;48.822;11.854;2022-08-03T18:25:31;30.00;99.90
19742;DHT22;10028;48.822;11.854;2022-08-03T18:30:45;29.10;99.90
19742;DHT22;10028;48.822;11.854;2022-08-03T18:33:36;29.40;99.90
19742;DHT22;10028;48.822;11.854;2022-08-03T18:39:00;29.30;82.00
19742;DHT22;10028;48.822;11.854;2022-08-03T18:41:30;29.10;82.40
19742;DHT22;10028;48.822;11.854;2022-08-03T18:44:02;28.90;99.90
19742;DHT22;10028;48.822;11.854;2022-08-03T18:47:01;28.80;99.90
19742;DHT22;10028;48.822;11.854;2022-08-03T18:52:45;28.80;84.30
19742;DHT22;10028;48.822;11.854;2022-08-03T18:55:34;28.30;99.90
19742;DHT22;10028;48.822;11.854;2022-08-03T19:01:09;28.70;99.90
19742;DHT22;10028;48.822;11.854;2022-08-03T19:04:08;28.50;85.30
19742;DHT22;10028;48.822;11.854;2022-08-03T19:06:41;28.30;85.00
19742;DHT22;10028;48.822;11.854;2022-08-03T19:09:23;27.90;99.90
19742;DHT22;10028;48.822;11.854;2022-08-03T19:11:56;28.10;85.10
19742;DHT22;10028;48.822;11.854;2022-08-03T19:14:45;28.10;85.40
19742;DHT22;10028;48.822;11.854;2022-08-03T19:17:15;28.00;85.90
19742;DHT22;10028;48.822;11.854;2022-08-03T19:19:49;27.90;86.20
19742;DHT22;10028;48.822;11.854;2022-08-03T19:22:17;27.80;86.60
19742;DHT22;10028;48.822;11.854;2022-08-03T19:24:47;27.80;86.70
19742;DHT22;10028;48.822;11.854;2022-08-03T19:29:47;27.60;87.20
19742;DHT22;10028;48.822;11.854;2022-08-03T19:32:31;27.50;87.60
19742;DHT22;10028;48.822;11.854;2022-08-03T19:35:00;27.40;87.90
19742;DHT22;10028;48.822;11.854;2022-08-03T19:37:28;27.30;88.40
19742;DHT22;10028;48.822;11.854;2022-08-03T19:40:05;27.20;99.90
19742;DHT22;10028;48.822;11.854;2022-08-03T19:42:39;27.10;89.30
19742;DHT22;10028;48.822;11.854;2022-08-03T19:45:12;26.80;99.90
19742;DHT22;10028;48.822;11.854;2022-08-03T19:47:50;27.10;99.90
19742;DHT22;10028;48.822;11.854;2022-08-03T19:50:19;26.70;90.20
19742;DHT22;10028;48.822;11.854;2022-08-03T19:52:47;26.60;90.50
19742;DHT22;10028;48.822;11.854;2022-08-03T19:55:16;26.50;90.80
19742;DHT22;10028;48.822;11.854;2022-08-03T19:57:46;26.40;90.90
19742;DHT22;10028;48.822;11.854;2022-08-03T20:00:16;26.40;91.20
19742;DHT22;10028;48.822;11.854;2022-08-03T20:07:45;26.10;92.20
19742;DHT22;10028;48.822;11.854;2022-08-03T20:10:15;26.00;92.30
19742;DHT22;10028;48.822;11.854;2022-08-03T20:12:44;25.90;92.50
19742;DHT22;10028;48.822;11.854;2022-08-03T20:20:33;25.20;99.90
19742;DHT22;10028;48.822;11.854;2022-08-03T20:23:05;25.40;93.30
19742;DHT22;10028;48.822;11.854;2022-08-03T20:25:39;25.40;93.80
19742;DHT22;10028;48.822;11.854;2022-08-03T20:36:03;25.20;99.90
19742;DHT22;10028;48.822;11.854;2022-08-03T20:48:52;24.60;96.10
19742;DHT22;10028;48.822;11.854;2022-08-03T21:06:49;24.20;98.70
19742;DHT22;10028;48.822;11.854;2022-08-03T21:09:22;24.20;98.80
19742;DHT22;10028;48.822;11.854;2022-08-03T21:12:00;24.10;99.00
19742;DHT22;10028;48.822;11.854;2022-08-03T21:14:42;23.90;99.90
19742;DHT22;10028;48.822;11.854;2022-08-03T21:17:18;24.00;99.40
19742;DHT22;10028;48.822;11.854;2022-08-03T21:20:06;24.30;99.90
19742;DHT22;10028;48.822;11.854;2022-08-03T21:22:36;23.80;99.90
19742;DHT22;10028;48.822;11.854;2022-08-03T21:25:06;23.30;99.90
19742;DHT22;10028;48.822;11.854;2022-08-03T21:27:35;23.70;99.90
19742;DHT22;10028;48.822;11.854;2022-08-03T21:30:08;23.60;99.90
19742;DHT22;10028;48.822;11.854;2022-08-03T21:35:09;23.50;99.90
19742;DHT22;10028;48.822;11.854;2022-08-03T21:37:37;23.40;99.90
19742;DHT22;10028;48.822;11.854;2022-08-03T21:40:06;23.60;99.90
19742;DHT22;10028;48.822;11.854;2022-08-03T21:45:04;23.20;99.90
19742;DHT22;10028;48.822;11.854;2022-08-03T21:47:35;23.10;99.90
19742;DHT22;10028;48.822;11.854;2022-08-03T21:50:06;23.00;99.90
19742;DHT22;10028;48.822;11.854;2022-08-03T21:52:41;22.90;99.90
19742;DHT22;10028;48.822;11.854;2022-08-03T21:55:09;22.80;99.90
19742;DHT22;10028;48.822;11.854;2022-08-03T21:57:51;22.80;99.90
19742;DHT22;10028;48.822;11.854;2022-08-03T22:00:20;22.70;99.90
19742;DHT22;10028;48.822;11.854;2022-08-03T22:02:54;22.90;99.90
19742;DHT22;10028;48.822;11.854;2022-08-03T22:05:25;22.60;99.90
19742;DHT22;10028;48.822;11.854;2022-08-03T22:08:11;22.60;99.90
19742;DHT22;10028;48.822;11.854;2022-08-03T22:23:02;22.30;99.90
19742;DHT22;10028;48.822;11.854;2022-08-03T22:25:34;22.20;99.90
19742;DHT22;10028;48.822;11.854;2022-08-03T22:28:06;22.20;99.90
19742;DHT22;10028;48.822;11.854;2022-08-03T22:33:02;22.00;99.90
19742;DHT22;10028;48.822;11.854;2022-08-03T22:35:31;22.00;99.90
19742;DHT22;10028;48.822;11.854;2022-08-03T22:38:15;21.90;99.90
19742;DHT22;10028;48.822;11.854;2022-08-03T22:40:43;21.90;99.90
19742;DHT22;10028;48.822;11.854;2022-08-03T22:53:20;21.60;99.90
19742;DHT22;10028;48.822;11.854;2022-08-03T22:55:49;21.50;99.90
19742;DHT22;10028;48.822;11.854;2022-08-03T22:58:17;21.50;99.90
19742;DHT22;10028;48.822;11.854;2022-08-03T23:00:52;21.00;99.90
19742;DHT22;10028;48.822;11.854;2022-08-03T23:03:26;21.30;99.90
19742;DHT22;10028;48.822;11.854;2022-08-03T23:06:18;21.30;99.90
19742;DHT22;10028;48.822;11.854;2022-08-03T23:08:48;21.30;99.90
19742;DHT22;10028;48.822;11.854;2022-08-03T23:11:16;21.20;99.90
19742;DHT22;10028;48.822;11.854;2022-08-03T23:13:46;21.20;99.90
19742;DHT22;10028;48.822;11.854;2022-08-03T23:16:17;21.10;99.90
19742;DHT22;10028;48.822;11.854;2022-08-03T23:18:57;21.00;99.90
19742;DHT22;10028;48.822;11.854;2022-08-03T23:21:26;21.00;99.90
19742;DHT22;10028;48.822;11.854;2022-08-03T23:29:25;20.90;99.90
19742;DHT22;10028;48.822;11.854;2022-08-03T23:31:52;20.90;99.90
19742;DHT22;10028;48.822;11.854;2022-08-03T23:44:31;20.70;99.90
19742;DHT22;10028;48.822;11.854;2022-08-03T23:52:02;20.90;99.90
